sensor_id;sensor_type;location;lat;lon;timestamp;P1;durP1;ratioP1;P2;durP2;ratioP2
26806;SDS011;14380;49.910;6.792;2023-04-06T00:00:06;8.38;;;4.32;;
26806;SDS011;14380;49.910;6.792;2023-04-06T00:02:36;6.25;;;4.55;;
26806;SDS011;14380;49.910;6.792;2023-04-06T00:05:03;7.03;;;4.13;;
26806;SDS011;14380;49.910;6.792;2023-04-06T00:07:31;7.70;;;4.43;;
26806;SDS011;14380;49.910;6.792;2023-04-06T00:10:00;8.88;;;4.40;;
26806;SDS011;14380;49.910;6.792;2023-04-06T00:12:27;5.30;;;3.83;;
26806;SDS011;14380;49.910;6.792;2023-04-06T00:14:53;6.88;;;4.55;;
26806;SDS011;14380;49.910;6.792;2023-04-06T00:17:20;11.93;;;5.15;;
26806;SDS011;14380;49.910;6.792;2023-04-06T00:19:49;8.25;;;4.60;;
26806;SDS011;14380;49.910;6.792;2023-04-06T00:22:15;10.23;;;4.50;;
26806;SDS011;14380;49.910;6.792;2023-04-06T00:24:42;7.57;;;4.70;;
26806;SDS011;14380;49.910;6.792;2023-04-06T00:27:09;8.30;;;4.60;;
26806;SDS011;14380;49.910;6.792;2023-04-06T00:29:36;10.73;;;5.32;;
26806;SDS011;14380;49.910;6.792;2023-04-06T00:32:03;6.55;;;4.80;;
26806;SDS011;14380;49.910;6.792;2023-04-06T00:34:30;7.78;;;4.82;;
26806;SDS011;14380;49.910;6.792;2023-04-06T00:36:59;8.57;;;4.57;;
26806;SDS011;14380;49.910;6.792;2023-04-06T00:39:26;6.63;;;4.70;;
26806;SDS011;14380;49.910;6.792;2023-04-06T00:41:52;7.47;;;4.70;;
26806;SDS011;14380;49.910;6.792;2023-04-06T00:44:20;8.75;;;4.93;;
26806;SDS011;14380;49.910;6.792;2023-04-06T00:46:48;9.55;;;5.00;;
26806;SDS011;14380;49.910;6.792;2023-04-06T00:49:15;9.45;;;4.95;;
26806;SDS011;14380;49.910;6.792;2023-04-06T00:51:42;7.03;;;4.57;;
26806;SDS011;14380;49.910;6.792;2023-04-06T00:54:11;6.50;;;4.75;;
26806;SDS011;14380;49.910;6.792;2023-04-06T00:56:37;8.30;;;4.70;;
26806;SDS011;14380;49.910;6.792;2023-04-06T00:59:04;6.65;;;4.28;;
26806;SDS011;14380;49.910;6.792;2023-04-06T01:01:31;8.40;;;4.88;;
26806;SDS011;14380;49.910;6.792;2023-04-06T01:03:58;8.85;;;4.25;;
26806;SDS011;14380;49.910;6.792;2023-04-06T01:06:27;7.25;;;4.60;;
26806;SDS011;14380;49.910;6.792;2023-04-06T01:08:54;8.55;;;4.70;;
26806;SDS011;14380;49.910;6.792;2023-04-06T01:11:23;8.48;;;4.95;;
26806;SDS011;14380;49.910;6.792;2023-04-06T01:13:51;7.30;;;4.75;;
26806;SDS011;14380;49.910;6.792;2023-04-06T01:16:17;10.68;;;4.80;;
26806;SDS011;14380;49.910;6.792;2023-04-06T01:18:44;15.98;;;8.80;;
26806;SDS011;14380;49.910;6.792;2023-04-06T01:21:11;10.10;;;6.53;;
26806;SDS011;14380;49.910;6.792;2023-04-06T01:23:43;13.70;;;6.18;;
26806;SDS011;14380;49.910;6.792;2023-04-06T01:26:10;10.18;;;5.90;;
26806;SDS011;14380;49.910;6.792;2023-04-06T01:28:37;9.98;;;6.07;;
26806;SDS011;14380;49.910;6.792;2023-04-06T01:31:03;10.25;;;4.78;;
26806;SDS011;14380;49.910;6.792;2023-04-06T01:33:31;6.28;;;4.70;;
26806;SDS011;14380;49.910;6.792;2023-04-06T01:35:57;8.52;;;4.75;;
26806;SDS011;14380;49.910;6.792;2023-04-06T01:38:24;8.65;;;5.25;;
26806;SDS011;14380;49.910;6.792;2023-04-06T01:40:53;8.07;;;5.32;;
26806;SDS011;14380;49.910;6.792;2023-04-06T01:43:20;8.52;;;5.68;;
26806;SDS011;14380;49.910;6.792;2023-04-06T01:45:47;11.88;;;5.50;;
26806;SDS011;14380;49.910;6.792;2023-04-06T01:48:14;10.00;;;5.30;;
26806;SDS011;14380;49.910;6.792;2023-04-06T01:50:41;9.50;;;5.75;;
26806;SDS011;14380;49.910;6.792;2023-04-06T01:53:08;10.68;;;7.07;;
26806;SDS011;14380;49.910;6.792;2023-04-06T01:55:35;9.50;;;5.95;;
26806;SDS011;14380;49.910;6.792;2023-04-06T01:58:03;7.50;;;5.57;;
26806;SDS011;14380;49.910;6.792;2023-04-06T02:00:30;10.63;;;6.30;;
26806;SDS011;14380;49.910;6.792;2023-04-06T02:02:57;9.32;;;6.30;;
26806;SDS011;14380;49.910;6.792;2023-04-06T02:05:23;9.20;;;5.97;;
26806;SDS011;14380;49.910;6.792;2023-04-06T02:07:50;8.40;;;5.10;;
26806;SDS011;14380;49.910;6.792;2023-04-06T02:10:17;10.00;;;6.00;;
26806;SDS011;14380;49.910;6.792;2023-04-06T02:12:44;9.93;;;6.38;;
26806;SDS011;14380;49.910;6.792;2023-04-06T02:15:12;10.43;;;6.10;;
26806;SDS011;14380;49.910;6.792;2023-04-06T02:17:39;9.20;;;5.93;;
26806;SDS011;14380;49.910;6.792;2023-04-06T02:20:06;11.32;;;6.10;;
26806;SDS011;14380;49.910;6.792;2023-04-06T02:22:34;9.55;;;6.50;;
26806;SDS011;14380;49.910;6.792;2023-04-06T02:25:01;10.73;;;6.35;;
26806;SDS011;14380;49.910;6.792;2023-04-06T02:27:27;9.95;;;6.30;;
26806;SDS011;14380;49.910;6.792;2023-04-06T02:29:54;9.50;;;6.10;;
26806;SDS011;14380;49.910;6.792;2023-04-06T02:32:22;12.35;;;6.70;;
26806;SDS011;14380;49.910;6.792;2023-04-06T02:34:49;10.68;;;6.28;;
26806;SDS011;14380;49.910;6.792;2023-04-06T02:37:16;10.90;;;6.70;;
26806;SDS011;14380;49.910;6.792;2023-04-06T02:39:43;11.52;;;6.60;;
26806;SDS011;14380;49.910;6.792;2023-04-06T02:42:10;10.02;;;6.47;;
26806;SDS011;14380;49.910;6.792;2023-04-06T02:44:37;8.82;;;6.40;;
26806;SDS011;14380;49.910;6.792;2023-04-06T02:47:04;10.27;;;6.88;;
26806;SDS011;14380;49.910;6.792;2023-04-06T02:49:32;10.45;;;6.72;;
26806;SDS011;14380;49.910;6.792;2023-04-06T02:51:58;9.55;;;6.18;;
26806;SDS011;14380;49.910;6.792;2023-04-06T02:54:25;11.68;;;7.18;;
26806;SDS011;14380;49.910;6.792;2023-04-06T02:56:52;11.90;;;6.40;;
26806;SDS011;14380;49.910;6.792;2023-04-06T02:59:18;9.60;;;6.43;;
26806;SDS011;14380;49.910;6.792;2023-04-06T03:01:45;11.00;;;6.78;;
26806;SDS011;14380;49.910;6.792;2023-04-06T03:04:12;11.02;;;7.20;;
26806;SDS011;14380;49.910;6.792;2023-04-06T03:06:40;10.23;;;6.00;;
26806;SDS011;14380;49.910;6.792;2023-04-06T03:09:07;9.93;;;6.80;;
26806;SDS011;14380;49.910;6.792;2023-04-06T03:11:33;10.90;;;7.68;;
26806;SDS011;14380;49.910;6.792;2023-04-06T03:14:00;11.10;;;7.00;;
26806;SDS011;14380;49.910;6.792;2023-04-06T03:16:27;10.98;;;6.93;;
26806;SDS011;14380;49.910;6.792;2023-04-06T03:18:54;10.85;;;6.72;;
26806;SDS011;14380;49.910;6.792;2023-04-06T03:21:21;16.70;;;7.72;;
26806;SDS011;14380;49.910;6.792;2023-04-06T03:23:49;10.82;;;6.75;;
26806;SDS011;14380;49.910;6.792;2023-04-06T03:26:16;12.18;;;7.15;;
26806;SDS011;14380;49.910;6.792;2023-04-06T03:28:43;11.52;;;7.32;;
26806;SDS011;14380;49.910;6.792;2023-04-06T03:31:09;12.90;;;7.30;;
26806;SDS011;14380;49.910;6.792;2023-04-06T03:33:36;10.98;;;7.10;;
26806;SDS011;14380;49.910;6.792;2023-04-06T03:36:03;12.00;;;7.20;;
26806;SDS011;14380;49.910;6.792;2023-04-06T03:38:30;12.23;;;8.02;;
26806;SDS011;14380;49.910;6.792;2023-04-06T03:40:58;12.68;;;7.45;;
26806;SDS011;14380;49.910;6.792;2023-04-06T03:43:25;13.80;;;7.65;;
26806;SDS011;14380;49.910;6.792;2023-04-06T03:45:52;11.88;;;8.23;;
26806;SDS011;14380;49.910;6.792;2023-04-06T03:48:19;13.45;;;8.10;;
26806;SDS011;14380;49.910;6.792;2023-04-06T03:50:45;17.70;;;8.35;;
26806;SDS011;14380;49.910;6.792;2023-04-06T03:53:12;12.15;;;8.50;;
26806;SDS011;14380;49.910;6.792;2023-04-06T03:55:39;11.63;;;7.40;;
26806;SDS011;14380;49.910;6.792;2023-04-06T03:58:07;10.25;;;7.25;;
26806;SDS011;14380;49.910;6.792;2023-04-06T04:00:33;9.60;;;7.22;;
26806;SDS011;14380;49.910;6.792;2023-04-06T04:03:00;13.05;;;7.80;;
26806;SDS011;14380;49.910;6.792;2023-04-06T04:05:28;14.77;;;7.90;;
26806;SDS011;14380;49.910;6.792;2023-04-06T04:07:55;10.68;;;7.55;;
26806;SDS011;14380;49.910;6.792;2023-04-06T04:10:22;13.02;;;8.38;;
26806;SDS011;14380;49.910;6.792;2023-04-06T04:12:48;25.52;;;13.23;;
26806;SDS011;14380;49.910;6.792;2023-04-06T04:15:17;14.80;;;9.05;;
26806;SDS011;14380;49.910;6.792;2023-04-06T04:17:44;17.02;;;7.95;;
26806;SDS011;14380;49.910;6.792;2023-04-06T04:20:14;12.30;;;8.23;;
26806;SDS011;14380;49.910;6.792;2023-04-06T04:22:41;10.18;;;7.10;;
26806;SDS011;14380;49.910;6.792;2023-04-06T04:25:08;15.32;;;7.93;;
26806;SDS011;14380;49.910;6.792;2023-04-06T04:27:35;15.45;;;8.10;;
26806;SDS011;14380;49.910;6.792;2023-04-06T04:30:02;13.52;;;7.72;;
26806;SDS011;14380;49.910;6.792;2023-04-06T04:32:30;11.82;;;8.38;;
26806;SDS011;14380;49.910;6.792;2023-04-06T04:34:57;12.55;;;7.90;;
26806;SDS011;14380;49.910;6.792;2023-04-06T04:37:23;12.45;;;7.78;;
26806;SDS011;14380;49.910;6.792;2023-04-06T04:39:50;13.27;;;8.02;;
26806;SDS011;14380;49.910;6.792;2023-04-06T04:42:17;12.00;;;8.18;;
26806;SDS011;14380;49.910;6.792;2023-04-06T04:44:43;12.98;;;8.55;;
26806;SDS011;14380;49.910;6.792;2023-04-06T04:47:10;13.30;;;8.18;;
26806;SDS011;14380;49.910;6.792;2023-04-06T04:49:38;14.73;;;7.85;;
26806;SDS011;14380;49.910;6.792;2023-04-06T04:52:05;12.90;;;7.57;;
26806;SDS011;14380;49.910;6.792;2023-04-06T04:54:32;11.93;;;7.97;;
26806;SDS011;14380;49.910;6.792;2023-04-06T04:56:59;11.93;;;7.47;;
26806;SDS011;14380;49.910;6.792;2023-04-06T04:59:25;14.95;;;7.70;;
26806;SDS011;14380;49.910;6.792;2023-04-06T05:01:54;13.02;;;7.95;;
26806;SDS011;14380;49.910;6.792;2023-04-06T05:04:21;17.90;;;7.85;;
26806;SDS011;14380;49.910;6.792;2023-04-06T05:06:50;13.43;;;8.48;;
26806;SDS011;14380;49.910;6.792;2023-04-06T05:09:16;13.65;;;7.43;;
26806;SDS011;14380;49.910;6.792;2023-04-06T05:11:43;12.30;;;8.05;;
26806;SDS011;14380;49.910;6.792;2023-04-06T05:14:10;13.70;;;7.50;;
26806;SDS011;14380;49.910;6.792;2023-04-06T05:16:37;12.30;;;8.20;;
26806;SDS011;14380;49.910;6.792;2023-04-06T05:19:04;18.15;;;7.80;;
26806;SDS011;14380;49.910;6.792;2023-04-06T05:21:30;11.18;;;7.72;;
26806;SDS011;14380;49.910;6.792;2023-04-06T05:23:58;15.50;;;9.23;;
26806;SDS011;14380;49.910;6.792;2023-04-06T05:26:27;18.58;;;12.00;;
26806;SDS011;14380;49.910;6.792;2023-04-06T05:28:54;16.70;;;11.02;;
26806;SDS011;14380;49.910;6.792;2023-04-06T05:31:20;14.35;;;8.55;;
26806;SDS011;14380;49.910;6.792;2023-04-06T05:33:47;15.05;;;8.40;;
26806;SDS011;14380;49.910;6.792;2023-04-06T05:36:14;11.93;;;7.63;;
26806;SDS011;14380;49.910;6.792;2023-04-06T05:38:41;12.63;;;8.23;;
26806;SDS011;14380;49.910;6.792;2023-04-06T05:41:10;10.38;;;7.63;;
26806;SDS011;14380;49.910;6.792;2023-04-06T05:43:38;12.80;;;8.18;;
26806;SDS011;14380;49.910;6.792;2023-04-06T05:46:04;12.65;;;7.43;;
26806;SDS011;14380;49.910;6.792;2023-04-06T05:48:31;11.18;;;7.28;;
26806;SDS011;14380;49.910;6.792;2023-04-06T05:50:58;13.93;;;8.38;;
26806;SDS011;14380;49.910;6.792;2023-04-06T05:53:26;11.18;;;7.95;;
26806;SDS011;14380;49.910;6.792;2023-04-06T05:55:54;15.23;;;8.85;;
26806;SDS011;14380;49.910;6.792;2023-04-06T05:58:22;11.30;;;8.40;;
26806;SDS011;14380;49.910;6.792;2023-04-06T06:00:49;12.70;;;7.85;;
26806;SDS011;14380;49.910;6.792;2023-04-06T06:03:16;12.63;;;7.85;;
26806;SDS011;14380;49.910;6.792;2023-04-06T06:05:43;13.82;;;7.60;;
26806;SDS011;14380;49.910;6.792;2023-04-06T06:08:10;11.88;;;7.70;;
26806;SDS011;14380;49.910;6.792;2023-04-06T06:10:38;10.15;;;7.15;;
26806;SDS011;14380;49.910;6.792;2023-04-06T06:13:06;13.27;;;8.32;;
26806;SDS011;14380;49.910;6.792;2023-04-06T06:15:37;10.70;;;7.82;;
26806;SDS011;14380;49.910;6.792;2023-04-06T06:18:04;16.13;;;8.30;;
26806;SDS011;14380;49.910;6.792;2023-04-06T06:20:32;14.23;;;8.98;;
26806;SDS011;14380;49.910;6.792;2023-04-06T06:23:04;13.27;;;8.77;;
26806;SDS011;14380;49.910;6.792;2023-04-06T06:25:31;17.02;;;7.93;;
26806;SDS011;14380;49.910;6.792;2023-04-06T06:27:58;12.80;;;7.63;;
26806;SDS011;14380;49.910;6.792;2023-04-06T06:30:25;13.68;;;7.78;;
26806;SDS011;14380;49.910;6.792;2023-04-06T06:32:53;11.73;;;7.68;;
26806;SDS011;14380;49.910;6.792;2023-04-06T06:35:20;10.95;;;7.35;;
26806;SDS011;14380;49.910;6.792;2023-04-06T06:37:47;11.27;;;8.15;;
26806;SDS011;14380;49.910;6.792;2023-04-06T06:40:14;11.65;;;7.45;;
26806;SDS011;14380;49.910;6.792;2023-04-06T06:42:42;10.80;;;7.25;;
26806;SDS011;14380;49.910;6.792;2023-04-06T06:45:10;10.63;;;7.90;;
26806;SDS011;14380;49.910;6.792;2023-04-06T06:47:37;12.68;;;7.68;;
26806;SDS011;14380;49.910;6.792;2023-04-06T06:50:06;13.02;;;8.32;;
26806;SDS011;14380;49.910;6.792;2023-04-06T06:52:33;12.30;;;7.47;;
26806;SDS011;14380;49.910;6.792;2023-04-06T06:55:00;12.75;;;7.55;;
26806;SDS011;14380;49.910;6.792;2023-04-06T06:57:27;15.02;;;8.27;;
26806;SDS011;14380;49.910;6.792;2023-04-06T06:59:54;13.55;;;7.45;;
26806;SDS011;14380;49.910;6.792;2023-04-06T07:02:21;15.90;;;7.50;;
26806;SDS011;14380;49.910;6.792;2023-04-06T07:04:47;12.00;;;7.80;;
26806;SDS011;14380;49.910;6.792;2023-04-06T07:07:16;10.77;;;7.30;;
26806;SDS011;14380;49.910;6.792;2023-04-06T07:09:42;13.57;;;7.40;;
26806;SDS011;14380;49.910;6.792;2023-04-06T07:12:09;10.15;;;6.82;;
26806;SDS011;14380;49.910;6.792;2023-04-06T07:14:36;10.30;;;6.57;;
26806;SDS011;14380;49.910;6.792;2023-04-06T07:17:03;13.00;;;6.60;;
26806;SDS011;14380;49.910;6.792;2023-04-06T07:19:30;8.98;;;6.53;;
26806;SDS011;14380;49.910;6.792;2023-04-06T07:21:57;12.45;;;6.38;;
26806;SDS011;14380;49.910;6.792;2023-04-06T07:24:25;11.70;;;6.03;;
26806;SDS011;14380;49.910;6.792;2023-04-06T07:26:52;14.00;;;6.78;;
26806;SDS011;14380;49.910;6.792;2023-04-06T07:29:19;8.80;;;6.28;;
26806;SDS011;14380;49.910;6.792;2023-04-06T07:31:45;13.40;;;7.15;;
26806;SDS011;14380;49.910;6.792;2023-04-06T07:34:14;11.13;;;7.35;;
26806;SDS011;14380;49.910;6.792;2023-04-06T07:36:40;11.95;;;7.00;;
26806;SDS011;14380;49.910;6.792;2023-04-06T07:39:07;17.25;;;9.02;;
26806;SDS011;14380;49.910;6.792;2023-04-06T07:41:35;15.05;;;9.00;;
26806;SDS011;14380;49.910;6.792;2023-04-06T07:44:02;20.65;;;9.23;;
26806;SDS011;14380;49.910;6.792;2023-04-06T07:46:30;13.63;;;7.10;;
26806;SDS011;14380;49.910;6.792;2023-04-06T07:48:57;13.63;;;7.35;;
26806;SDS011;14380;49.910;6.792;2023-04-06T07:51:25;12.43;;;6.93;;
26806;SDS011;14380;49.910;6.792;2023-04-06T07:53:52;16.35;;;7.75;;
26806;SDS011;14380;49.910;6.792;2023-04-06T07:56:19;12.57;;;7.45;;
26806;SDS011;14380;49.910;6.792;2023-04-06T07:58:48;11.43;;;8.00;;
26806;SDS011;14380;49.910;6.792;2023-04-06T08:01:15;9.73;;;7.45;;
26806;SDS011;14380;49.910;6.792;2023-04-06T08:03:41;15.48;;;8.27;;
26806;SDS011;14380;49.910;6.792;2023-04-06T08:06:08;15.23;;;7.93;;
26806;SDS011;14380;49.910;6.792;2023-04-06T08:08:35;9.80;;;7.25;;
26806;SDS011;14380;49.910;6.792;2023-04-06T08:11:02;10.80;;;6.65;;
26806;SDS011;14380;49.910;6.792;2023-04-06T08:13:28;10.15;;;7.20;;
26806;SDS011;14380;49.910;6.792;2023-04-06T08:15:56;9.95;;;7.60;;
26806;SDS011;14380;49.910;6.792;2023-04-06T08:18:25;10.48;;;7.57;;
26806;SDS011;14380;49.910;6.792;2023-04-06T08:20:51;14.38;;;8.30;;
26806;SDS011;14380;49.910;6.792;2023-04-06T08:23:18;11.98;;;7.50;;
26806;SDS011;14380;49.910;6.792;2023-04-06T08:25:45;10.18;;;7.07;;
26806;SDS011;14380;49.910;6.792;2023-04-06T08:28:11;19.33;;;7.95;;
26806;SDS011;14380;49.910;6.792;2023-04-06T08:30:39;11.18;;;7.15;;
26806;SDS011;14380;49.910;6.792;2023-04-06T08:33:07;12.13;;;7.85;;
26806;SDS011;14380;49.910;6.792;2023-04-06T08:35:34;13.90;;;7.75;;
26806;SDS011;14380;49.910;6.792;2023-04-06T08:38:01;9.52;;;6.85;;
26806;SDS011;14380;49.910;6.792;2023-04-06T08:40:27;14.88;;;7.57;;
26806;SDS011;14380;49.910;6.792;2023-04-06T08:42:54;13.98;;;9.23;;
26806;SDS011;14380;49.910;6.792;2023-04-06T08:45:22;15.02;;;7.93;;
26806;SDS011;14380;49.910;6.792;2023-04-06T08:47:50;19.38;;;11.07;;
26806;SDS011;14380;49.910;6.792;2023-04-06T08:50:19;22.02;;;8.10;;
26806;SDS011;14380;49.910;6.792;2023-04-06T08:52:47;12.80;;;7.75;;
26806;SDS011;14380;49.910;6.792;2023-04-06T08:55:15;15.02;;;7.60;;
26806;SDS011;14380;49.910;6.792;2023-04-06T08:57:42;15.38;;;7.88;;
26806;SDS011;14380;49.910;6.792;2023-04-06T09:00:10;13.60;;;7.13;;
26806;SDS011;14380;49.910;6.792;2023-04-06T09:02:38;14.27;;;7.68;;
26806;SDS011;14380;49.910;6.792;2023-04-06T09:05:06;13.48;;;7.10;;
26806;SDS011;14380;49.910;6.792;2023-04-06T09:07:36;15.23;;;7.65;;
26806;SDS011;14380;49.910;6.792;2023-04-06T09:10:03;15.05;;;7.50;;
26806;SDS011;14380;49.910;6.792;2023-04-06T09:12:30;13.68;;;7.28;;
26806;SDS011;14380;49.910;6.792;2023-04-06T09:14:58;13.35;;;7.70;;
26806;SDS011;14380;49.910;6.792;2023-04-06T09:17:27;14.25;;;7.30;;
26806;SDS011;14380;49.910;6.792;2023-04-06T09:19:55;13.68;;;7.85;;
26806;SDS011;14380;49.910;6.792;2023-04-06T09:22:22;12.75;;;7.30;;
26806;SDS011;14380;49.910;6.792;2023-04-06T09:24:53;15.80;;;7.72;;
26806;SDS011;14380;49.910;6.792;2023-04-06T09:27:29;15.88;;;7.97;;
26806;SDS011;14380;49.910;6.792;2023-04-06T09:30:02;15.43;;;8.00;;
26806;SDS011;14380;49.910;6.792;2023-04-06T09:32:29;14.38;;;7.40;;
26806;SDS011;14380;49.910;6.792;2023-04-06T09:35:05;13.70;;;7.13;;
26806;SDS011;14380;49.910;6.792;2023-04-06T09:37:32;13.07;;;7.65;;
26806;SDS011;14380;49.910;6.792;2023-04-06T09:40:03;13.15;;;7.32;;
26806;SDS011;14380;49.910;6.792;2023-04-06T09:42:31;15.27;;;7.03;;
26806;SDS011;14380;49.910;6.792;2023-04-06T09:44:58;12.25;;;7.38;;
26806;SDS011;14380;49.910;6.792;2023-04-06T09:47:24;13.75;;;7.78;;
26806;SDS011;14380;49.910;6.792;2023-04-06T09:49:55;14.70;;;7.40;;
26806;SDS011;14380;49.910;6.792;2023-04-06T09:52:24;15.20;;;8.05;;
26806;SDS011;14380;49.910;6.792;2023-04-06T09:54:54;14.52;;;8.02;;
26806;SDS011;14380;49.910;6.792;2023-04-06T09:57:28;14.05;;;7.57;;
26806;SDS011;14380;49.910;6.792;2023-04-06T10:00:01;18.38;;;8.27;;
26806;SDS011;14380;49.910;6.792;2023-04-06T10:02:41;15.07;;;7.50;;
26806;SDS011;14380;49.910;6.792;2023-04-06T10:05:17;15.50;;;7.57;;
26806;SDS011;14380;49.910;6.792;2023-04-06T10:07:49;16.60;;;8.63;;
26806;SDS011;14380;49.910;6.792;2023-04-06T10:10:20;17.10;;;8.55;;
26806;SDS011;14380;49.910;6.792;2023-04-06T10:12:48;16.70;;;8.30;;
26806;SDS011;14380;49.910;6.792;2023-04-06T10:15:15;16.20;;;8.48;;
26806;SDS011;14380;49.910;6.792;2023-04-06T10:17:42;20.25;;;9.13;;
26806;SDS011;14380;49.910;6.792;2023-04-06T10:20:10;18.75;;;9.32;;
26806;SDS011;14380;49.910;6.792;2023-04-06T10:22:41;17.83;;;8.70;;
26806;SDS011;14380;49.910;6.792;2023-04-06T10:25:15;17.08;;;8.75;;
26806;SDS011;14380;49.910;6.792;2023-04-06T10:27:42;18.83;;;9.20;;
26806;SDS011;14380;49.910;6.792;2023-04-06T10:30:11;17.20;;;8.52;;
26806;SDS011;14380;49.910;6.792;2023-04-06T10:32:42;15.25;;;8.43;;
26806;SDS011;14380;49.910;6.792;2023-04-06T10:35:09;17.98;;;8.57;;
26806;SDS011;14380;49.910;6.792;2023-04-06T10:37:50;16.45;;;8.20;;
26806;SDS011;14380;49.910;6.792;2023-04-06T10:40:19;15.50;;;7.93;;
26806;SDS011;14380;49.910;6.792;2023-04-06T10:42:48;17.42;;;8.07;;
26806;SDS011;14380;49.910;6.792;2023-04-06T10:45:34;15.60;;;8.10;;
26806;SDS011;14380;49.910;6.792;2023-04-06T10:48:12;17.02;;;8.45;;
26806;SDS011;14380;49.910;6.792;2023-04-06T10:50:39;16.08;;;7.97;;
26806;SDS011;14380;49.910;6.792;2023-04-06T10:53:06;16.40;;;8.80;;
26806;SDS011;14380;49.910;6.792;2023-04-06T10:55:33;17.40;;;7.80;;
26806;SDS011;14380;49.910;6.792;2023-04-06T10:58:01;15.98;;;7.78;;
26806;SDS011;14380;49.910;6.792;2023-04-06T11:00:29;14.50;;;7.95;;
26806;SDS011;14380;49.910;6.792;2023-04-06T11:02:58;15.88;;;7.57;;
26806;SDS011;14380;49.910;6.792;2023-04-06T11:05:26;15.15;;;8.13;;
26806;SDS011;14380;49.910;6.792;2023-04-06T11:07:53;18.15;;;8.45;;
26806;SDS011;14380;49.910;6.792;2023-04-06T11:10:20;14.65;;;7.28;;
26806;SDS011;14380;49.910;6.792;2023-04-06T11:12:52;16.38;;;7.88;;
26806;SDS011;14380;49.910;6.792;2023-04-06T11:15:20;16.17;;;7.63;;
26806;SDS011;14380;49.910;6.792;2023-04-06T11:17:48;17.45;;;8.82;;
26806;SDS011;14380;49.910;6.792;2023-04-06T11:20:16;17.83;;;8.55;;
26806;SDS011;14380;49.910;6.792;2023-04-06T11:22:48;16.83;;;9.27;;
26806;SDS011;14380;49.910;6.792;2023-04-06T11:25:16;16.65;;;8.40;;
26806;SDS011;14380;49.910;6.792;2023-04-06T11:27:43;16.05;;;8.38;;
26806;SDS011;14380;49.910;6.792;2023-04-06T11:30:12;18.88;;;9.65;;
26806;SDS011;14380;49.910;6.792;2023-04-06T11:32:40;14.77;;;8.07;;
26806;SDS011;14380;49.910;6.792;2023-04-06T11:35:20;15.23;;;8.43;;
26806;SDS011;14380;49.910;6.792;2023-04-06T11:37:48;15.13;;;8.90;;
26806;SDS011;14380;49.910;6.792;2023-04-06T11:40:15;16.83;;;8.15;;
26806;SDS011;14380;49.910;6.792;2023-04-06T11:42:51;18.88;;;9.48;;
26806;SDS011;14380;49.910;6.792;2023-04-06T11:45:19;17.05;;;9.02;;
26806;SDS011;14380;49.910;6.792;2023-04-06T11:47:54;15.45;;;8.63;;
26806;SDS011;14380;49.910;6.792;2023-04-06T11:50:25;25.58;;;14.05;;
26806;SDS011;14380;49.910;6.792;2023-04-06T11:52:59;27.15;;;15.00;;
26806;SDS011;14380;49.910;6.792;2023-04-06T11:55:26;22.38;;;15.23;;
26806;SDS011;14380;49.910;6.792;2023-04-06T11:57:53;24.35;;;12.93;;
26806;SDS011;14380;49.910;6.792;2023-04-06T12:00:21;14.43;;;9.02;;
26806;SDS011;14380;49.910;6.792;2023-04-06T12:02:48;14.13;;;8.73;;
26806;SDS011;14380;49.910;6.792;2023-04-06T12:05:15;16.58;;;8.88;;
26806;SDS011;14380;49.910;6.792;2023-04-06T12:07:44;15.20;;;9.15;;
26806;SDS011;14380;49.910;6.792;2023-04-06T12:10:11;14.13;;;8.63;;
26806;SDS011;14380;49.910;6.792;2023-04-06T12:12:38;15.93;;;8.13;;
26806;SDS011;14380;49.910;6.792;2023-04-06T12:15:06;13.50;;;8.43;;
26806;SDS011;14380;49.910;6.792;2023-04-06T12:17:34;18.17;;;8.80;;
26806;SDS011;14380;49.910;6.792;2023-04-06T12:20:02;15.32;;;8.85;;
26806;SDS011;14380;49.910;6.792;2023-04-06T12:22:29;17.02;;;9.48;;
26806;SDS011;14380;49.910;6.792;2023-04-06T12:24:57;15.35;;;8.90;;
26806;SDS011;14380;49.910;6.792;2023-04-06T12:27:24;16.00;;;9.40;;
26806;SDS011;14380;49.910;6.792;2023-04-06T12:29:51;15.65;;;7.97;;
26806;SDS011;14380;49.910;6.792;2023-04-06T12:32:18;13.18;;;8.63;;
26806;SDS011;14380;49.910;6.792;2023-04-06T12:34:45;17.52;;;9.13;;
26806;SDS011;14380;49.910;6.792;2023-04-06T12:37:12;17.67;;;9.93;;
26806;SDS011;14380;49.910;6.792;2023-04-06T12:39:40;14.10;;;8.60;;
26806;SDS011;14380;49.910;6.792;2023-04-06T12:42:10;14.93;;;9.00;;
26806;SDS011;14380;49.910;6.792;2023-04-06T12:44:38;16.30;;;8.98;;
26806;SDS011;14380;49.910;6.792;2023-04-06T12:47:07;16.25;;;8.73;;
26806;SDS011;14380;49.910;6.792;2023-04-06T12:49:36;13.60;;;8.23;;
26806;SDS011;14380;49.910;6.792;2023-04-06T12:52:03;15.52;;;8.45;;
26806;SDS011;14380;49.910;6.792;2023-04-06T12:54:29;16.98;;;8.70;;
26806;SDS011;14380;49.910;6.792;2023-04-06T12:56:56;13.85;;;8.73;;
26806;SDS011;14380;49.910;6.792;2023-04-06T12:59:24;13.23;;;8.63;;
26806;SDS011;14380;49.910;6.792;2023-04-06T13:01:51;13.15;;;8.07;;
26806;SDS011;14380;49.910;6.792;2023-04-06T13:04:18;12.43;;;8.30;;
26806;SDS011;14380;49.910;6.792;2023-04-06T13:06:45;12.15;;;7.70;;
26806;SDS011;14380;49.910;6.792;2023-04-06T13:09:12;17.02;;;8.68;;
26806;SDS011;14380;49.910;6.792;2023-04-06T13:11:39;15.77;;;8.48;;
26806;SDS011;14380;49.910;6.792;2023-04-06T13:14:06;10.27;;;7.78;;
26806;SDS011;14380;49.910;6.792;2023-04-06T13:16:34;11.40;;;7.28;;
26806;SDS011;14380;49.910;6.792;2023-04-06T13:19:02;10.18;;;6.75;;
26806;SDS011;14380;49.910;6.792;2023-04-06T13:21:29;10.45;;;6.65;;
26806;SDS011;14380;49.910;6.792;2023-04-06T13:23:57;12.07;;;6.45;;
26806;SDS011;14380;49.910;6.792;2023-04-06T13:26:24;12.40;;;6.22;;
26806;SDS011;14380;49.910;6.792;2023-04-06T13:28:51;7.90;;;5.70;;
26806;SDS011;14380;49.910;6.792;2023-04-06T13:31:18;9.38;;;6.07;;
26806;SDS011;14380;49.910;6.792;2023-04-06T13:33:46;12.93;;;6.55;;
26806;SDS011;14380;49.910;6.792;2023-04-06T13:36:13;15.30;;;7.00;;
26806;SDS011;14380;49.910;6.792;2023-04-06T13:38:41;11.60;;;7.20;;
26806;SDS011;14380;49.910;6.792;2023-04-06T13:41:08;10.90;;;7.80;;
26806;SDS011;14380;49.910;6.792;2023-04-06T13:43:35;12.55;;;7.70;;
26806;SDS011;14380;49.910;6.792;2023-04-06T13:46:01;10.93;;;7.28;;
26806;SDS011;14380;49.910;6.792;2023-04-06T13:48:28;10.80;;;7.72;;
26806;SDS011;14380;49.910;6.792;2023-04-06T13:50:57;13.75;;;8.63;;
26806;SDS011;14380;49.910;6.792;2023-04-06T13:53:23;15.00;;;9.10;;
26806;SDS011;14380;49.910;6.792;2023-04-06T13:55:53;12.13;;;8.23;;
26806;SDS011;14380;49.910;6.792;2023-04-06T13:58:20;12.63;;;8.43;;
26806;SDS011;14380;49.910;6.792;2023-04-06T14:00:47;11.35;;;8.23;;
26806;SDS011;14380;49.910;6.792;2023-04-06T14:03:13;11.07;;;7.88;;
26806;SDS011;14380;49.910;6.792;2023-04-06T14:05:40;13.20;;;8.45;;
26806;SDS011;14380;49.910;6.792;2023-04-06T14:08:08;14.00;;;9.05;;
26806;SDS011;14380;49.910;6.792;2023-04-06T14:10:36;10.95;;;8.27;;
26806;SDS011;14380;49.910;6.792;2023-04-06T14:13:03;13.48;;;8.25;;
26806;SDS011;14380;49.910;6.792;2023-04-06T14:15:30;10.82;;;7.38;;
26806;SDS011;14380;49.910;6.792;2023-04-06T14:17:57;12.98;;;8.30;;
26806;SDS011;14380;49.910;6.792;2023-04-06T14:20:24;12.70;;;8.18;;
26806;SDS011;14380;49.910;6.792;2023-04-06T14:22:51;10.45;;;7.20;;
26806;SDS011;14380;49.910;6.792;2023-04-06T14:25:20;12.32;;;7.72;;
26806;SDS011;14380;49.910;6.792;2023-04-06T14:27:47;11.90;;;7.68;;
26806;SDS011;14380;49.910;6.792;2023-04-06T14:30:14;9.70;;;7.00;;
26806;SDS011;14380;49.910;6.792;2023-04-06T14:32:41;11.80;;;7.25;;
26806;SDS011;14380;49.910;6.792;2023-04-06T14:35:08;10.32;;;7.38;;
26806;SDS011;14380;49.910;6.792;2023-04-06T14:37:35;11.48;;;7.43;;